createdAt,value
2018-06-17T00:00:45.185Z,21.40
2018-06-17T00:03:13.455Z,21.30
2018-06-17T00:05:41.714Z,21.30
2018-06-17T00:08:09.912Z,21.30
2018-06-17T00:10:38.228Z,21.30
2018-06-17T00:13:06.551Z,21.20
2018-06-17T00:15:34.839Z,21.20
2018-06-17T00:18:03.212Z,21.20
2018-06-17T00:20:31.415Z,21.10
2018-06-17T00:22:59.772Z,21.10
2018-06-17T00:25:28.047Z,21.10
2018-06-17T00:27:56.327Z,21.10
2018-06-17T00:30:24.549Z,21.10
2018-06-17T00:32:52.756Z,21.00
2018-06-17T00:35:21.098Z,21.00
2018-06-17T00:37:49.382Z,20.90
2018-06-17T00:40:17.591Z,20.90
2018-06-17T00:42:45.780Z,20.80
2018-06-17T00:45:14.102Z,20.80
2018-06-17T00:47:42.417Z,20.80
2018-06-17T00:50:10.628Z,20.70
2018-06-17T00:52:38.853Z,20.70
2018-06-17T00:55:07.160Z,20.60
2018-06-17T00:57:47.808Z,20.60
2018-06-17T01:00:16.052Z,20.60
2018-06-17T01:02:44.771Z,20.60
2018-06-17T01:05:13.048Z,20.50
2018-06-17T01:07:41.516Z,20.50
2018-06-17T01:10:09.831Z,20.40
2018-06-17T01:12:38.683Z,20.40
2018-06-17T01:15:07.157Z,20.30
2018-06-17T01:17:35.639Z,20.20
2018-06-17T01:20:04.468Z,20.10
2018-06-17T01:22:32.768Z,20.00
2018-06-17T01:25:01.205Z,20.00
2018-06-17T01:27:29.511Z,19.90
2018-06-17T01:29:57.769Z,20.00
2018-06-17T01:32:26.037Z,20.00
2018-06-17T01:34:54.332Z,20.00
2018-06-17T01:39:50.627Z,20.00
2018-06-17T01:42:18.898Z,20.00
2018-06-17T01:44:47.083Z,20.00
2018-06-17T01:47:15.423Z,20.00
2018-06-17T01:52:11.688Z,20.00
2018-06-17T01:54:40.287Z,20.00
2018-06-17T01:57:08.549Z,19.90
2018-06-17T01:59:36.904Z,19.90
2018-06-17T02:02:05.176Z,19.90
2018-06-17T02:04:38.715Z,19.90
2018-06-17T02:07:15.181Z,20.00
2018-06-17T02:09:48.884Z,20.00
2018-06-17T02:12:18.080Z,20.00
2018-06-17T02:14:51.856Z,20.00
2018-06-17T02:17:21.513Z,19.90
2018-06-17T02:19:50.280Z,19.90
2018-06-17T02:22:18.511Z,19.90
2018-06-17T02:24:46.883Z,19.80
2018-06-17T02:27:15.269Z,19.70
2018-06-17T02:29:43.655Z,19.70
2018-06-17T02:32:12.177Z,19.70
2018-06-17T02:34:40.431Z,19.70
2018-06-17T02:37:09.288Z,19.60
2018-06-17T02:39:37.459Z,19.60
2018-06-17T02:42:07.896Z,19.50
2018-06-17T02:44:36.188Z,19.50
2018-06-17T02:47:09.883Z,19.40
2018-06-17T02:49:40.947Z,19.40
2018-06-17T02:52:14.717Z,19.40
2018-06-17T02:54:45.240Z,19.30
2018-06-17T02:57:15.745Z,19.30
2018-06-17T02:59:44.525Z,19.30
2018-06-17T03:02:13.194Z,19.30
2018-06-17T03:07:09.456Z,19.30
2018-06-17T03:09:37.787Z,19.20
2018-06-17T03:12:06.192Z,19.20
2018-06-17T03:14:34.443Z,19.20
2018-06-17T03:17:02.713Z,19.10
2018-06-17T03:19:31.008Z,19.10
2018-06-17T03:21:59.286Z,19.10
2018-06-17T03:24:32.892Z,19.10
2018-06-17T03:27:06.633Z,19.00
2018-06-17T03:29:40.367Z,19.00
2018-06-17T03:32:14.008Z,19.00
2018-06-17T03:34:43.909Z,19.00
2018-06-17T03:37:12.236Z,18.90
2018-06-17T03:39:40.610Z,18.90
2018-06-17T03:42:08.858Z,18.90
2018-06-17T03:44:37.157Z,18.90
2018-06-17T03:47:05.504Z,18.80
2018-06-17T03:49:33.812Z,18.80
2018-06-17T03:52:02.141Z,18.80
2018-06-17T03:54:30.385Z,18.80
2018-06-17T03:56:58.696Z,18.80
2018-06-17T03:59:27.019Z,18.70
2018-06-17T04:01:55.367Z,18.70
2018-06-17T04:04:23.820Z,18.70
2018-06-17T04:06:52.437Z,18.70
2018-06-17T04:09:20.656Z,18.70
2018-06-17T04:11:49.614Z,18.70
2018-06-17T04:14:17.893Z,18.70
2018-06-17T04:16:46.209Z,18.70
2018-06-17T04:19:14.433Z,18.80
2018-06-17T04:21:42.697Z,18.80
2018-06-17T04:24:10.939Z,18.80
2018-06-17T04:26:39.211Z,18.80
2018-06-17T04:29:07.556Z,18.80
2018-06-17T04:34:03.804Z,18.80
2018-06-17T04:36:32.125Z,18.80
2018-06-17T04:39:00.416Z,18.90
2018-06-17T04:41:28.709Z,18.90
2018-06-17T04:43:56.985Z,18.90
2018-06-17T04:46:26.136Z,18.90
2018-06-17T04:51:22.513Z,19.10
2018-06-17T04:53:50.812Z,19.10
2018-06-17T04:56:19.051Z,19.20
2018-06-17T04:58:47.359Z,19.20
2018-06-17T05:01:15.639Z,19.10
2018-06-17T05:03:43.921Z,19.20
2018-06-17T05:06:12.305Z,19.20
2018-06-17T05:08:40.578Z,19.20
2018-06-17T05:11:08.902Z,19.30
2018-06-17T05:13:37.313Z,19.30
2018-06-17T05:16:05.647Z,19.30
2018-06-17T05:18:33.989Z,19.30
2018-06-17T05:21:02.240Z,19.30
2018-06-17T05:23:30.497Z,19.30
2018-06-17T05:25:58.764Z,19.30
2018-06-17T05:28:27.099Z,19.20
2018-06-17T05:30:55.481Z,19.20
2018-06-17T05:33:23.750Z,19.30
2018-06-17T05:35:52.030Z,19.30
2018-06-17T05:38:20.454Z,19.30
2018-06-17T05:40:48.797Z,19.30
2018-06-17T05:43:17.128Z,19.30
2018-06-17T05:45:45.523Z,19.30
2018-06-17T05:48:13.821Z,19.30
2018-06-17T05:50:42.082Z,19.20
2018-06-17T05:53:10.500Z,19.20
2018-06-17T05:55:38.931Z,19.20
2018-06-17T05:58:07.170Z,19.10
2018-06-17T06:00:35.778Z,19.20
2018-06-17T06:03:04.077Z,19.20
2018-06-17T06:10:28.571Z,19.20
2018-06-17T06:12:56.879Z,19.20
2018-06-17T06:17:53.268Z,19.40
2018-06-17T06:20:21.611Z,19.40
2018-06-17T06:22:49.889Z,19.50
2018-06-17T06:25:18.249Z,19.60
2018-06-17T06:27:46.565Z,19.70
2018-06-17T06:30:14.951Z,19.70
2018-06-17T06:32:43.307Z,19.70
2018-06-17T06:35:11.628Z,19.80
2018-06-17T06:37:40.227Z,19.90
2018-06-17T06:40:08.568Z,19.90
2018-06-17T06:42:36.858Z,20.00
2018-06-17T06:47:33.256Z,20.20
2018-06-17T06:50:01.597Z,20.30
2018-06-17T06:52:29.927Z,20.40
2018-06-17T06:54:58.283Z,20.40
2018-06-17T06:57:26.603Z,20.40
2018-06-17T06:59:54.866Z,20.50
2018-06-17T07:02:34.403Z,20.50
2018-06-17T07:05:13.920Z,20.50
2018-06-17T07:07:53.765Z,20.60
2018-06-17T07:10:23.891Z,20.60
2018-06-17T07:12:52.316Z,20.60
2018-06-17T07:15:31.960Z,20.70
2018-06-17T07:18:11.635Z,20.70
2018-06-17T07:23:08.008Z,20.70
2018-06-17T07:26:57.579Z,20.80
2018-06-17T07:29:39.687Z,20.90
2018-06-17T07:32:08.040Z,20.90
2018-06-17T07:34:36.445Z,21.00
2018-06-17T07:37:04.929Z,21.10
2018-06-17T07:41:42.924Z,21.30
2018-06-17T07:44:11.286Z,21.40
2018-06-17T07:46:39.602Z,21.40
2018-06-17T07:49:31.056Z,21.40
2018-06-17T07:52:12.171Z,21.40
2018-06-17T07:54:41.628Z,21.50
2018-06-17T07:57:11.107Z,21.60
2018-06-17T07:59:39.431Z,21.70
2018-06-17T08:02:09.713Z,21.80
2018-06-17T08:04:38.143Z,21.80
2018-06-17T08:07:06.465Z,21.80
2018-06-17T08:09:34.797Z,21.70
2018-06-17T08:12:03.484Z,21.80
2018-06-17T08:14:31.895Z,21.90
2018-06-17T08:17:00.405Z,21.90
2018-06-17T08:19:29.744Z,22.00
2018-06-17T08:21:58.850Z,21.90
2018-06-17T08:24:27.622Z,21.90
2018-06-17T08:26:55.982Z,22.00
2018-06-17T08:29:24.435Z,22.00
2018-06-17T08:31:53.012Z,21.90
2018-06-17T08:34:21.461Z,21.80
2018-06-17T08:36:49.777Z,21.90
2018-06-17T08:39:19.364Z,21.90
2018-06-17T08:41:47.702Z,22.00
2018-06-17T08:44:16.988Z,22.10
2018-06-17T08:46:46.098Z,22.10
2018-06-17T08:49:14.855Z,22.10
2018-06-17T08:51:43.433Z,22.20
2018-06-17T08:54:12.095Z,22.20
2018-06-17T08:56:40.419Z,22.20
2018-06-17T08:59:08.815Z,22.20
2018-06-17T09:01:37.314Z,22.30
2018-06-17T09:04:05.635Z,22.30
2018-06-17T09:06:33.920Z,22.20
2018-06-17T09:09:02.328Z,22.30
2018-06-17T09:11:30.702Z,22.40
2018-06-17T09:13:59.079Z,22.60
2018-06-17T09:16:27.348Z,22.80
2018-06-17T09:18:55.686Z,22.90
2018-06-17T09:21:24.024Z,23.00
2018-06-17T09:23:52.337Z,23.10
2018-06-17T09:26:20.637Z,23.10
2018-06-17T09:28:48.999Z,23.20
2018-06-17T09:31:17.471Z,23.30
2018-06-17T09:33:45.821Z,23.40
2018-06-17T09:36:14.220Z,23.40
2018-06-17T09:38:42.541Z,23.60
2018-06-17T09:41:10.834Z,23.70
2018-06-17T09:43:39.773Z,23.80
2018-06-17T09:46:08.091Z,23.80
2018-06-17T09:48:36.457Z,23.70
2018-06-17T09:51:04.819Z,23.50
2018-06-17T09:53:33.280Z,23.40
2018-06-17T09:56:01.763Z,23.40
2018-06-17T10:00:58.205Z,23.90
2018-06-17T10:03:26.540Z,24.00
2018-06-17T10:05:54.822Z,24.00
2018-06-17T10:08:23.719Z,23.80
2018-06-17T10:10:53.350Z,23.70
2018-06-17T10:13:23.995Z,23.40
2018-06-17T10:15:52.639Z,23.20
2018-06-17T10:18:22.030Z,23.10
2018-06-17T10:20:50.530Z,23.00
2018-06-17T10:23:19.158Z,23.00
2018-06-17T10:25:47.612Z,23.10
2018-06-17T10:28:16.443Z,23.20
2018-06-17T10:30:46.303Z,23.20
2018-06-17T10:33:15.207Z,23.20
2018-06-17T10:35:44.448Z,23.20
2018-06-17T10:38:12.914Z,23.20
2018-06-17T10:40:41.200Z,23.10
2018-06-17T10:43:12.037Z,23.00
2018-06-17T10:45:40.803Z,22.90
2018-06-17T10:48:09.439Z,22.90
2018-06-17T10:50:37.803Z,22.80
2018-06-17T10:53:06.488Z,22.90
2018-06-17T10:55:34.940Z,22.90
2018-06-17T10:58:03.210Z,22.90
2018-06-17T11:00:31.477Z,22.90
2018-06-17T11:02:59.805Z,23.00
2018-06-17T11:05:28.197Z,23.00
2018-06-17T11:07:56.671Z,22.90
2018-06-17T11:10:25.197Z,22.90
2018-06-17T11:12:53.783Z,23.00
2018-06-17T11:15:22.164Z,23.00
2018-06-17T11:17:50.672Z,23.10
2018-06-17T11:22:47.105Z,23.00
2018-06-17T11:25:15.495Z,23.10
2018-06-17T11:27:43.754Z,23.10
2018-06-17T11:30:12.105Z,23.20
2018-06-17T11:32:40.508Z,23.20
2018-06-17T11:35:08.903Z,23.30
2018-06-17T11:37:37.220Z,23.30
2018-06-17T11:40:05.626Z,23.40
2018-06-17T11:42:34.002Z,23.50
2018-06-17T11:45:02.957Z,23.50
2018-06-17T11:47:31.334Z,23.50
2018-06-17T11:50:00.091Z,23.70
2018-06-17T11:52:28.447Z,23.80
2018-06-17T11:54:56.794Z,23.80
2018-06-17T11:57:25.183Z,23.80
2018-06-17T11:59:53.596Z,23.90
2018-06-17T12:02:23.106Z,24.00
2018-06-17T12:04:51.444Z,24.00
2018-06-17T12:07:20.841Z,24.00
2018-06-17T12:09:49.172Z,24.00
2018-06-17T12:12:17.568Z,24.10
2018-06-17T12:14:45.901Z,24.00
2018-06-17T12:17:14.395Z,24.00
2018-06-17T12:19:42.692Z,23.90
2018-06-17T12:22:10.978Z,23.80
2018-06-17T12:24:39.415Z,23.60
2018-06-17T12:27:07.781Z,23.40
2018-06-17T12:29:36.155Z,23.30
2018-06-17T12:32:04.526Z,23.20
2018-06-17T12:34:32.853Z,23.10
2018-06-17T12:37:01.286Z,23.10
2018-06-17T12:41:57.886Z,23.30
2018-06-17T12:44:26.245Z,23.30
2018-06-17T12:46:54.661Z,23.30
2018-06-17T12:49:23.047Z,23.20
2018-06-17T12:51:51.321Z,23.30
2018-06-17T12:54:19.671Z,23.30
2018-06-17T12:56:48.044Z,23.30
2018-06-17T12:59:17.322Z,23.50
2018-06-17T13:01:46.079Z,23.50
2018-06-17T13:04:14.584Z,23.50
2018-06-17T13:06:42.911Z,23.60
2018-06-17T13:09:12.196Z,23.60
2018-06-17T13:11:40.456Z,23.60
2018-06-17T13:14:09.283Z,23.60
2018-06-17T13:19:06.607Z,23.70
2018-06-17T13:21:34.853Z,23.80
2018-06-17T13:24:03.165Z,23.80
2018-06-17T13:26:31.606Z,23.80
2018-06-17T13:28:59.914Z,23.80
2018-06-17T13:31:28.147Z,23.70
2018-06-17T13:33:56.474Z,23.70
2018-06-17T13:36:24.799Z,23.70
2018-06-17T13:38:53.235Z,23.70
2018-06-17T13:43:49.855Z,23.80
2018-06-17T13:46:18.323Z,23.80
2018-06-17T13:48:46.834Z,23.90
2018-06-17T13:51:15.351Z,23.90
2018-06-17T13:53:44.428Z,24.00
2018-06-17T13:56:12.798Z,24.00
2018-06-17T13:58:41.239Z,24.10
2018-06-17T14:01:09.787Z,24.10
2018-06-17T14:03:38.173Z,24.00
2018-06-17T14:06:07.225Z,24.00
2018-06-17T14:08:35.571Z,24.00
2018-06-17T14:11:03.953Z,23.90
2018-06-17T14:13:32.404Z,23.80
2018-06-17T14:16:00.692Z,23.80
2018-06-17T14:18:29.020Z,23.70
2018-06-17T14:20:57.401Z,23.70
2018-06-17T14:23:26.275Z,23.70
2018-06-17T14:25:54.718Z,23.60
2018-06-17T14:28:23.081Z,23.60
2018-06-17T14:30:51.780Z,23.70
2018-06-17T14:33:20.130Z,23.70
2018-06-17T14:35:49.081Z,23.70
2018-06-17T14:38:17.519Z,23.70
2018-06-17T14:40:51.916Z,23.70
2018-06-17T14:43:25.560Z,23.70
2018-06-17T14:46:01.400Z,23.60
2018-06-17T14:48:35.290Z,23.50
2018-06-17T14:51:09.029Z,23.50
2018-06-17T14:53:37.412Z,23.40
2018-06-17T14:56:06.146Z,23.30
2018-06-17T14:58:34.480Z,23.20
2018-06-17T15:01:02.828Z,23.10
2018-06-17T15:03:31.309Z,23.20
2018-06-17T15:05:59.681Z,23.10
2018-06-17T15:08:27.954Z,23.10
2018-06-17T15:10:56.314Z,23.10
2018-06-17T15:13:24.795Z,23.20
2018-06-17T15:15:53.268Z,23.20
2018-06-17T15:18:21.683Z,23.20
2018-06-17T15:20:49.927Z,23.10
2018-06-17T15:23:18.509Z,23.10
2018-06-17T15:25:46.904Z,23.10
2018-06-17T15:28:15.271Z,23.10
2018-06-17T15:30:43.632Z,23.10
2018-06-17T15:33:18.015Z,23.10
2018-06-17T15:35:51.942Z,23.10
2018-06-17T15:38:25.853Z,23.00
2018-06-17T15:40:59.641Z,22.90
2018-06-17T15:43:28.325Z,22.80
2018-06-17T15:45:57.641Z,22.70
2018-06-17T15:48:26.424Z,22.60
2018-06-17T15:50:55.037Z,22.60
2018-06-17T15:53:23.321Z,22.60
2018-06-17T15:55:51.710Z,22.70
2018-06-17T15:58:20.362Z,22.70
2018-06-17T16:00:48.773Z,22.50
2018-06-17T16:03:17.133Z,22.50
2018-06-17T16:05:45.799Z,22.50
2018-06-17T16:08:14.137Z,22.60
2018-06-17T16:10:42.571Z,22.60
2018-06-17T16:13:16.392Z,22.60
2018-06-17T16:15:50.100Z,22.60
2018-06-17T16:18:23.952Z,22.50
2018-06-17T16:20:59.148Z,22.50
2018-06-17T16:23:28.842Z,22.50
2018-06-17T16:25:57.242Z,22.50
2018-06-17T16:28:25.558Z,22.50
2018-06-17T16:30:53.943Z,22.40
2018-06-17T16:33:22.323Z,22.50
2018-06-17T16:35:50.731Z,22.50
2018-06-17T16:38:19.036Z,22.40
2018-06-17T16:40:47.798Z,22.40
2018-06-17T16:43:16.096Z,22.40
2018-06-17T16:45:44.885Z,22.40
2018-06-17T16:48:13.332Z,22.40
2018-06-17T16:50:45.998Z,22.30
2018-06-17T16:53:19.822Z,22.30
2018-06-17T16:55:54.733Z,22.30
2018-06-17T16:58:28.445Z,22.30
2018-06-17T17:00:57.889Z,22.30
2018-06-17T17:03:26.826Z,22.30
2018-06-17T17:05:55.275Z,22.20
2018-06-17T17:08:23.595Z,22.20
2018-06-17T17:10:51.964Z,22.30
2018-06-17T17:13:20.289Z,22.20
2018-06-17T17:15:48.753Z,22.20
2018-06-17T17:18:17.708Z,22.20
2018-06-17T17:20:46.028Z,22.20
2018-06-17T17:23:14.458Z,22.30
2018-06-17T17:25:42.739Z,22.30
2018-06-17T17:28:11.003Z,22.30
2018-06-17T17:30:39.415Z,22.30
2018-06-17T17:33:12.966Z,22.20
2018-06-17T17:35:46.733Z,22.30
2018-06-17T17:38:20.948Z,22.30
2018-06-17T17:40:52.550Z,22.30
2018-06-17T17:43:20.922Z,22.30
2018-06-17T17:45:54.907Z,22.20
2018-06-17T17:48:24.122Z,22.20
2018-06-17T17:50:52.532Z,22.20
2018-06-17T17:53:20.896Z,22.20
2018-06-17T17:55:49.665Z,22.10
2018-06-17T17:58:18.064Z,22.10
2018-06-17T18:00:46.731Z,22.00
2018-06-17T18:03:15.081Z,22.00
2018-06-17T18:05:43.447Z,22.00
2018-06-17T18:08:12.118Z,22.00
2018-06-17T18:10:40.529Z,21.90
2018-06-17T18:13:08.848Z,21.90
2018-06-17T18:15:37.200Z,21.90
2018-06-17T18:18:05.566Z,21.80
2018-06-17T18:20:33.923Z,21.70
2018-06-17T18:23:02.325Z,21.60
2018-06-17T18:25:36.245Z,21.60
2018-06-17T18:30:43.826Z,21.60
2018-06-17T18:33:17.680Z,21.60
2018-06-17T18:35:51.579Z,21.50
2018-06-17T18:38:19.861Z,21.50
2018-06-17T18:40:48.262Z,21.50
2018-06-17T18:43:16.557Z,21.50
2018-06-17T18:45:45.006Z,21.50
2018-06-17T18:50:41.602Z,21.40
2018-06-17T18:53:09.950Z,21.30
2018-06-17T18:55:39.187Z,21.20
2018-06-17T18:58:07.864Z,21.20
2018-06-17T19:00:36.171Z,21.10
2018-06-17T19:03:04.489Z,21.10
2018-06-17T19:05:32.845Z,21.00
2018-06-17T19:08:01.200Z,21.00
2018-06-17T19:10:35.038Z,21.00
2018-06-17T19:13:08.734Z,21.00
2018-06-17T19:15:42.343Z,21.00
2018-06-17T19:18:12.703Z,21.00
2018-06-17T19:20:41.514Z,21.10
2018-06-17T19:25:38.063Z,21.10
2018-06-17T19:28:06.385Z,21.20
2018-06-17T19:30:34.780Z,21.10
2018-06-17T19:33:03.092Z,21.20
2018-06-17T19:35:31.452Z,21.20
2018-06-17T19:38:00.780Z,21.20
2018-06-17T19:40:29.134Z,21.20
2018-06-17T19:42:57.545Z,21.20
2018-06-17T19:45:25.964Z,21.20
2018-06-17T19:47:54.341Z,21.20
2018-06-17T19:50:28.144Z,21.10
2018-06-17T19:53:01.797Z,21.10
2018-06-17T19:55:35.688Z,21.00
2018-06-17T19:58:10.254Z,21.00
2018-06-17T20:00:41.242Z,20.90
2018-06-17T20:03:10.305Z,20.90
2018-06-17T20:05:40.249Z,20.80
2018-06-17T20:08:09.230Z,20.80
2018-06-17T20:10:38.304Z,20.80
2018-06-17T20:13:06.698Z,20.70
2018-06-17T20:15:35.020Z,20.70
2018-06-17T20:18:03.551Z,20.70
2018-06-17T20:20:31.906Z,20.60
2018-06-17T20:23:00.338Z,20.50
2018-06-17T20:25:28.636Z,20.40
2018-06-17T20:27:57.002Z,20.30
2018-06-17T20:30:25.423Z,20.30
2018-06-17T20:32:59.301Z,20.30
2018-06-17T20:35:32.899Z,20.20
2018-06-17T20:38:06.719Z,20.10
2018-06-17T20:40:40.724Z,20.10
2018-06-17T20:43:14.364Z,20.00
2018-06-17T20:45:43.394Z,20.10
2018-06-17T20:48:11.726Z,20.00
2018-06-17T20:50:40.072Z,20.00
2018-06-17T20:53:08.824Z,20.00
2018-06-17T20:55:37.165Z,19.90
2018-06-17T20:58:05.594Z,19.90
2018-06-17T21:00:33.978Z,20.00
2018-06-17T21:03:02.272Z,20.00
2018-06-17T21:05:30.582Z,20.10
2018-06-17T21:07:58.947Z,20.10
2018-06-17T21:10:27.298Z,20.10
2018-06-17T21:12:55.888Z,20.10
2018-06-17T21:15:24.405Z,20.10
2018-06-17T21:17:52.757Z,20.10
2018-06-17T21:20:26.619Z,20.10
2018-06-17T21:23:01.032Z,20.10
2018-06-17T21:25:34.680Z,20.10
2018-06-17T21:28:03.104Z,20.10
2018-06-17T21:30:31.394Z,20.10
2018-06-17T21:32:59.724Z,20.10
2018-06-17T21:35:28.009Z,20.10
2018-06-17T21:37:56.316Z,20.10
2018-06-17T21:40:24.739Z,20.00
2018-06-17T21:42:53.052Z,20.00
2018-06-17T21:45:21.375Z,20.00
2018-06-17T21:47:49.668Z,20.00
2018-06-17T21:50:17.944Z,20.00
2018-06-17T21:52:46.363Z,20.00
2018-06-17T21:55:14.725Z,19.90
2018-06-17T21:57:43.024Z,19.90
2018-06-17T22:00:11.331Z,19.80
2018-06-17T22:02:44.821Z,19.80
2018-06-17T22:05:13.590Z,19.80
2018-06-17T22:07:47.208Z,19.70
2018-06-17T22:10:21.008Z,19.70
2018-06-17T22:12:54.855Z,19.60
2018-06-17T22:15:28.773Z,19.60
2018-06-17T22:17:57.047Z,19.50
2018-06-17T22:20:25.341Z,19.40
2018-06-17T22:22:53.612Z,19.40
2018-06-17T22:25:22.087Z,19.30
2018-06-17T22:27:50.415Z,19.20
2018-06-17T22:30:19.289Z,19.20
2018-06-17T22:32:47.597Z,19.10
2018-06-17T22:35:15.895Z,19.10
2018-06-17T22:37:44.126Z,19.00
2018-06-17T22:40:12.467Z,19.00
2018-06-17T22:42:40.704Z,19.00
2018-06-17T22:45:09.079Z,19.00
2018-06-17T22:47:42.888Z,18.90
2018-06-17T22:50:11.789Z,18.90
2018-06-17T22:52:51.985Z,18.80
2018-06-17T22:55:20.248Z,18.80
2018-06-17T22:57:53.715Z,18.70
2018-06-17T23:00:27.408Z,18.70
2018-06-17T23:03:01.196Z,18.60
2018-06-17T23:05:34.982Z,18.60
2018-06-17T23:08:08.592Z,18.50
2018-06-17T23:10:36.895Z,18.40
2018-06-17T23:13:05.237Z,18.40
2018-06-17T23:20:29.655Z,18.30
2018-06-17T23:25:26.257Z,18.20
2018-06-17T23:27:54.546Z,18.10
2018-06-17T23:30:22.914Z,18.10
2018-06-17T23:32:51.183Z,18.10
2018-06-17T23:35:19.479Z,18.10
2018-06-17T23:37:47.842Z,18.10
2018-06-17T23:40:16.191Z,18.10
2018-06-17T23:42:44.492Z,18.10
2018-06-17T23:45:12.824Z,18.20
2018-06-17T23:47:46.407Z,18.20
2018-06-17T23:50:20.176Z,18.20
2018-06-17T23:52:53.827Z,18.20
2018-06-17T23:55:27.653Z,18.20
2018-06-17T23:57:56.131Z,18.20
